createdAt,value
2018-08-13T00:00:31.783Z,0
2018-08-13T00:01:31.788Z,0
2018-08-13T00:02:31.784Z,0
2018-08-13T00:03:31.788Z,0
2018-08-13T00:04:31.790Z,0
2018-08-13T00:05:31.856Z,0
2018-08-13T00:06:31.858Z,0
2018-08-13T00:07:31.790Z,0
2018-08-13T00:08:31.822Z,0
2018-08-13T00:09:31.783Z,0
2018-08-13T00:10:31.790Z,0
2018-08-13T00:11:31.748Z,0
2018-08-13T00:12:31.822Z,0
2018-08-13T00:13:31.746Z,0
2018-08-13T00:14:31.750Z,0
2018-08-13T00:15:31.846Z,0
2018-08-13T00:16:31.809Z,0
2018-08-13T00:17:31.820Z,0
2018-08-13T00:18:31.762Z,0
2018-08-13T00:19:31.852Z,0
2018-08-13T00:20:31.835Z,0
2018-08-13T00:21:31.767Z,0
2018-08-13T00:22:31.752Z,0
2018-08-13T00:23:31.866Z,0
2018-08-13T00:24:31.835Z,0
2018-08-13T00:25:31.747Z,0
2018-08-13T00:26:31.774Z,0
2018-08-13T00:27:31.750Z,0
2018-08-13T00:28:31.831Z,0
2018-08-13T00:29:31.731Z,0
2018-08-13T00:30:31.827Z,0
2018-08-13T00:31:31.899Z,0
2018-08-13T00:32:31.766Z,0
2018-08-13T00:33:31.766Z,0
2018-08-13T00:34:31.780Z,0
2018-08-13T00:35:31.843Z,0
2018-08-13T00:36:31.764Z,0
2018-08-13T00:37:31.801Z,0
2018-08-13T00:38:31.779Z,0
2018-08-13T00:39:31.843Z,0
2018-08-13T00:40:31.850Z,0
2018-08-13T00:41:31.877Z,0
2018-08-13T00:42:31.827Z,0
2018-08-13T00:43:31.746Z,0
2018-08-13T00:44:31.783Z,0
2018-08-13T00:45:31.785Z,0
2018-08-13T00:46:31.789Z,0
2018-08-13T00:47:31.887Z,0
2018-08-13T00:48:31.885Z,0
2018-08-13T00:49:31.816Z,0
2018-08-13T00:50:31.889Z,0
2018-08-13T00:51:31.817Z,0
2018-08-13T00:52:31.816Z,0
2018-08-13T00:53:31.891Z,0
2018-08-13T00:54:31.815Z,0
2018-08-13T00:55:31.894Z,0
2018-08-13T00:56:31.819Z,0
2018-08-13T00:57:31.891Z,0
2018-08-13T00:58:31.822Z,0
2018-08-13T00:59:31.897Z,0
2018-08-13T01:00:31.909Z,0
2018-08-13T01:01:31.835Z,0
2018-08-13T01:02:31.826Z,0
2018-08-13T01:03:31.896Z,0
2018-08-13T01:04:31.896Z,0
2018-08-13T01:05:31.897Z,0
2018-08-13T01:06:31.899Z,0
2018-08-13T01:07:31.901Z,0
2018-08-13T01:08:31.826Z,0
2018-08-13T01:09:31.898Z,0
2018-08-13T01:10:31.898Z,0
2018-08-13T01:11:31.898Z,0
2018-08-13T01:12:31.828Z,0
2018-08-13T01:13:31.831Z,0
2018-08-13T01:14:31.839Z,0
2018-08-13T01:15:31.907Z,0
2018-08-13T01:16:31.906Z,0
2018-08-13T01:17:31.907Z,0
2018-08-13T01:18:31.905Z,0
2018-08-13T01:19:31.907Z,0
2018-08-13T01:20:31.840Z,0
2018-08-13T01:21:31.908Z,0
2018-08-13T01:22:31.839Z,0
2018-08-13T01:23:31.910Z,0
2018-08-13T01:24:31.911Z,0
2018-08-13T01:25:31.913Z,0
2018-08-13T01:26:31.911Z,0
2018-08-13T01:27:31.848Z,0
2018-08-13T01:28:31.815Z,0
2018-08-13T01:29:31.764Z,0
2018-08-13T01:30:31.856Z,0
2018-08-13T01:31:31.812Z,0
2018-08-13T01:32:31.770Z,0
2018-08-13T01:33:31.773Z,0
2018-08-13T01:34:31.797Z,0
2018-08-13T01:35:31.865Z,0
2018-08-13T01:36:31.815Z,0
2018-08-13T01:37:31.774Z,0
2018-08-13T01:38:31.819Z,0
2018-08-13T01:39:31.869Z,0
2018-08-13T01:40:31.821Z,0
2018-08-13T01:41:31.828Z,0
2018-08-13T01:42:31.870Z,0
2018-08-13T01:43:31.915Z,0
2018-08-13T01:44:31.873Z,0
2018-08-13T01:45:31.825Z,0
2018-08-13T01:46:31.830Z,0
2018-08-13T01:47:31.921Z,0
2018-08-13T01:48:31.807Z,0
2018-08-13T01:49:31.895Z,0
2018-08-13T01:50:31.831Z,0
2018-08-13T01:51:31.899Z,0
2018-08-13T01:52:31.896Z,0
2018-08-13T01:53:31.812Z,0
2018-08-13T01:54:31.831Z,0
2018-08-13T01:55:31.927Z,0
2018-08-13T01:56:31.924Z,0
2018-08-13T01:57:31.830Z,0
2018-08-13T01:58:31.893Z,0
2018-08-13T01:59:31.934Z,0
2018-08-13T02:00:31.868Z,0
2018-08-13T02:01:32.120Z,0
2018-08-13T02:02:31.937Z,0
2018-08-13T02:03:31.893Z,0
2018-08-13T02:04:31.939Z,0
2018-08-13T02:05:31.873Z,0
2018-08-13T02:06:31.870Z,0
2018-08-13T02:07:31.942Z,0
2018-08-13T02:08:31.943Z,0
2018-08-13T02:09:31.868Z,0
2018-08-13T02:10:31.943Z,0
2018-08-13T02:11:31.942Z,0
2018-08-13T02:12:31.872Z,0
2018-08-13T02:13:31.944Z,0
2018-08-13T02:14:31.945Z,0
2018-08-13T02:15:31.946Z,0
2018-08-13T02:16:31.972Z,0
2018-08-13T02:17:31.908Z,0
2018-08-13T02:18:31.912Z,0
2018-08-13T02:19:31.882Z,0
2018-08-13T02:20:31.851Z,0
2018-08-13T02:21:31.846Z,0
2018-08-13T02:22:31.922Z,0
2018-08-13T02:23:31.857Z,0
2018-08-13T02:24:31.814Z,0
2018-08-13T02:25:31.940Z,0
2018-08-13T02:26:31.858Z,0
2018-08-13T02:27:31.815Z,0
2018-08-13T02:28:31.958Z,0
2018-08-13T02:29:31.955Z,0
2018-08-13T02:30:31.888Z,0
2018-08-13T02:31:31.967Z,0
2018-08-13T02:32:32.021Z,0
2018-08-13T02:33:31.958Z,0
2018-08-13T02:34:31.959Z,0
2018-08-13T02:35:31.961Z,0
2018-08-13T02:36:31.961Z,0
2018-08-13T02:37:31.896Z,0
2018-08-13T02:38:31.961Z,0
2018-08-13T02:39:32.000Z,0
2018-08-13T02:40:31.964Z,0
2018-08-13T02:41:31.967Z,0
2018-08-13T02:42:31.897Z,0
2018-08-13T02:43:31.965Z,0
2018-08-13T02:44:31.965Z,0
2018-08-13T02:45:31.968Z,0
2018-08-13T02:46:31.905Z,0
2018-08-13T02:47:31.969Z,0
2018-08-13T02:48:31.895Z,0
2018-08-13T02:49:31.970Z,0
2018-08-13T02:50:31.971Z,0
2018-08-13T02:51:31.971Z,0
2018-08-13T02:52:31.904Z,0
2018-08-13T02:53:31.973Z,0
2018-08-13T02:54:31.902Z,0
2018-08-13T02:55:31.904Z,0
2018-08-13T02:56:31.975Z,0
2018-08-13T02:57:31.901Z,0
2018-08-13T02:58:31.993Z,0
2018-08-13T02:59:31.965Z,0
2018-08-13T03:00:31.948Z,0
2018-08-13T03:01:31.863Z,0
2018-08-13T03:02:31.890Z,0
2018-08-13T03:03:32.178Z,0
2018-08-13T03:04:31.932Z,0
2018-08-13T03:05:31.972Z,0
2018-08-13T03:06:31.903Z,0
2018-08-13T03:07:31.867Z,0
2018-08-13T03:08:31.891Z,0
2018-08-13T03:09:31.913Z,0
2018-08-13T03:10:31.988Z,0
2018-08-13T03:11:31.916Z,0
2018-08-13T03:12:31.994Z,0
2018-08-13T03:13:31.916Z,0
2018-08-13T03:14:31.986Z,0
2018-08-13T03:15:31.987Z,0
2018-08-13T03:16:31.936Z,0
2018-08-13T03:17:31.990Z,0
2018-08-13T03:18:31.934Z,0
2018-08-13T03:19:31.895Z,0
2018-08-13T03:20:31.966Z,0
2018-08-13T03:21:31.850Z,0
2018-08-13T03:22:31.939Z,0
2018-08-13T03:23:31.992Z,0
2018-08-13T03:24:31.858Z,0
2018-08-13T03:25:31.861Z,0
2018-08-13T03:26:31.880Z,0
2018-08-13T03:27:31.900Z,0
2018-08-13T03:28:31.961Z,0
2018-08-13T03:29:31.963Z,0
2018-08-13T03:30:31.937Z,0
2018-08-13T03:31:31.928Z,0
2018-08-13T03:32:31.967Z,0
2018-08-13T03:33:32.037Z,0
2018-08-13T03:34:31.908Z,0
2018-08-13T03:35:31.969Z,0
2018-08-13T03:36:31.994Z,0
2018-08-13T03:37:31.946Z,0
2018-08-13T03:38:31.970Z,0
2018-08-13T03:39:31.998Z,0
2018-08-13T03:40:31.891Z,0
2018-08-13T03:41:31.909Z,0
2018-08-13T03:42:31.974Z,0
2018-08-13T03:43:31.937Z,0
2018-08-13T03:44:31.970Z,0
2018-08-13T03:45:31.912Z,0
2018-08-13T03:46:31.999Z,0
2018-08-13T03:47:31.885Z,0
2018-08-13T03:48:31.887Z,0
2018-08-13T03:49:31.873Z,0
2018-08-13T03:50:31.891Z,0
2018-08-13T03:51:32.003Z,0
2018-08-13T03:52:31.878Z,0
2018-08-13T03:53:31.983Z,0
2018-08-13T03:54:31.899Z,0
2018-08-13T03:55:31.966Z,0
2018-08-13T03:56:31.889Z,0
2018-08-13T03:57:31.968Z,0
2018-08-13T03:58:32.009Z,0
2018-08-13T03:59:31.922Z,0
2018-08-13T04:00:31.898Z,0
2018-08-13T04:01:32.009Z,0
2018-08-13T04:02:31.966Z,0
2018-08-13T04:03:31.997Z,0
2018-08-13T04:04:32.013Z,0
2018-08-13T04:05:31.904Z,0
2018-08-13T04:06:32.015Z,0
2018-08-13T04:07:31.929Z,0
2018-08-13T04:08:31.949Z,0
2018-08-13T04:09:32.024Z,0
2018-08-13T04:10:31.957Z,0
2018-08-13T04:11:32.027Z,0
2018-08-13T04:12:31.964Z,0
2018-08-13T04:13:32.027Z,0
2018-08-13T04:14:31.958Z,0
2018-08-13T04:15:31.981Z,0
2018-08-13T04:16:32.029Z,0
2018-08-13T04:17:32.032Z,0
2018-08-13T04:18:31.961Z,0
2018-08-13T04:19:32.019Z,0
2018-08-13T04:20:31.930Z,0
2018-08-13T04:21:31.933Z,0
2018-08-13T04:22:32.045Z,0
2018-08-13T04:23:31.978Z,0
2018-08-13T04:24:31.996Z,0
2018-08-13T04:25:31.919Z,0
2018-08-13T04:26:31.981Z,0
2018-08-13T04:27:31.915Z,0
2018-08-13T04:28:31.974Z,0
2018-08-13T04:29:31.963Z,0
2018-08-13T04:30:32.040Z,0
2018-08-13T04:31:31.970Z,0
2018-08-13T04:32:32.073Z,0
2018-08-13T04:33:31.964Z,0
2018-08-13T04:34:32.041Z,0
2018-08-13T04:35:31.968Z,0
2018-08-13T04:36:32.047Z,0
2018-08-13T04:37:31.975Z,0
2018-08-13T04:38:32.056Z,0
2018-08-13T04:39:31.987Z,0
2018-08-13T04:40:32.008Z,0
2018-08-13T04:41:32.054Z,0
2018-08-13T04:42:31.985Z,0
2018-08-13T04:43:31.918Z,0
2018-08-13T04:44:31.917Z,0
2018-08-13T04:45:31.936Z,0
2018-08-13T04:46:32.027Z,0
2018-08-13T04:47:31.937Z,0
2018-08-13T04:48:31.930Z,0
2018-08-13T04:49:32.051Z,0
2018-08-13T04:50:32.053Z,0
2018-08-13T04:51:31.977Z,0
2018-08-13T04:52:32.054Z,0
2018-08-13T04:53:31.987Z,0
2018-08-13T04:54:32.055Z,0
2018-08-13T04:55:32.029Z,0
2018-08-13T04:56:32.055Z,0
2018-08-13T04:57:32.058Z,0
2018-08-13T04:58:32.060Z,0
2018-08-13T04:59:32.027Z,13
2018-08-13T05:00:31.962Z,16
2018-08-13T05:01:32.060Z,18
2018-08-13T05:02:32.001Z,18
2018-08-13T05:03:32.045Z,19
2018-08-13T05:04:31.989Z,20
2018-08-13T05:05:31.941Z,21
2018-08-13T05:06:32.012Z,21
2018-08-13T05:07:32.027Z,22
2018-08-13T05:08:31.926Z,22
2018-08-13T05:09:32.000Z,24
2018-08-13T05:10:31.947Z,23
2018-08-13T05:11:32.017Z,26
2018-08-13T05:12:32.016Z,26
2018-08-13T05:13:31.937Z,27
2018-08-13T05:14:31.975Z,27
2018-08-13T05:15:31.921Z,25
2018-08-13T05:16:32.097Z,25
2018-08-13T05:17:32.026Z,26
2018-08-13T05:18:32.022Z,26
2018-08-13T05:19:32.071Z,26
2018-08-13T05:20:31.999Z,25
2018-08-13T05:21:32.078Z,25
2018-08-13T05:22:32.005Z,26
2018-08-13T05:23:32.072Z,26
2018-08-13T05:24:32.009Z,25
2018-08-13T05:25:32.007Z,25
2018-08-13T05:26:32.080Z,23
2018-08-13T05:27:32.033Z,24
2018-08-13T05:28:32.079Z,25
2018-08-13T05:29:31.971Z,25
2018-08-13T05:30:31.975Z,24
2018-08-13T05:31:31.972Z,25
2018-08-13T05:32:31.931Z,24
2018-08-13T05:33:31.917Z,23
2018-08-13T05:34:31.980Z,23
2018-08-13T05:35:31.973Z,24
2018-08-13T05:36:31.973Z,24
2018-08-13T05:37:32.021Z,25
2018-08-13T05:38:32.023Z,25
2018-08-13T05:39:31.969Z,26
2018-08-13T05:40:31.980Z,27
2018-08-13T05:41:31.993Z,28
2018-08-13T05:42:32.016Z,29
2018-08-13T05:43:31.956Z,31
2018-08-13T05:44:32.016Z,33
2018-08-13T05:45:32.047Z,35
2018-08-13T05:46:32.017Z,40
2018-08-13T05:47:32.003Z,43
2018-08-13T05:48:32.054Z,46
2018-08-13T05:49:31.923Z,49
2018-08-13T05:50:32.032Z,53
2018-08-13T05:51:32.034Z,50
2018-08-13T05:52:32.033Z,54
2018-08-13T05:53:31.987Z,62
2018-08-13T05:54:32.036Z,67
2018-08-13T05:55:32.041Z,72
2018-08-13T05:56:32.038Z,75
2018-08-13T05:57:32.024Z,87
2018-08-13T05:58:32.041Z,93
2018-08-13T05:59:31.986Z,101
2018-08-13T06:00:32.125Z,106
2018-08-13T06:01:32.130Z,109
2018-08-13T06:02:32.010Z,111
2018-08-13T06:03:32.007Z,106
2018-08-13T06:04:32.049Z,104
2018-08-13T06:05:31.962Z,107
2018-08-13T06:06:32.059Z,105
2018-08-13T06:07:32.060Z,101
2018-08-13T06:08:32.068Z,94
2018-08-13T06:09:32.076Z,92
2018-08-13T06:10:32.016Z,91
2018-08-13T06:11:32.093Z,83
2018-08-13T06:12:32.016Z,79
2018-08-13T06:13:32.011Z,81
2018-08-13T06:14:31.989Z,79
2018-08-13T06:15:32.094Z,78
2018-08-13T06:16:32.008Z,80
2018-08-13T06:17:32.040Z,84
2018-08-13T06:18:32.107Z,88
2018-08-13T06:19:32.068Z,94
2018-08-13T06:20:32.028Z,99
2018-08-13T06:21:32.055Z,104
2018-08-13T06:22:32.000Z,105
2018-08-13T06:23:31.985Z,111
2018-08-13T06:24:32.014Z,116
2018-08-13T06:25:32.075Z,120
2018-08-13T06:26:32.045Z,126
2018-08-13T06:27:32.060Z,112
2018-08-13T06:28:32.006Z,107
2018-08-13T06:29:32.120Z,142
2018-08-13T06:30:32.051Z,151
2018-08-13T06:31:32.124Z,161
2018-08-13T06:32:32.123Z,166
2018-08-13T06:33:32.049Z,170
2018-08-13T06:34:32.124Z,177
2018-08-13T06:35:32.053Z,188
2018-08-13T06:36:32.049Z,194
2018-08-13T06:37:32.051Z,199
2018-08-13T06:38:32.128Z,201
2018-08-13T06:39:32.057Z,207
2018-08-13T06:40:32.130Z,209
2018-08-13T06:41:32.056Z,212
2018-08-13T06:42:32.134Z,206
2018-08-13T06:43:32.057Z,211
2018-08-13T06:44:32.133Z,225
2018-08-13T06:45:32.056Z,231
2018-08-13T06:46:32.135Z,249
2018-08-13T06:47:32.131Z,238
2018-08-13T06:48:32.055Z,267
2018-08-13T06:49:32.059Z,263
2018-08-13T06:50:32.138Z,278
2018-08-13T06:51:32.061Z,278
2018-08-13T06:52:32.069Z,265
2018-08-13T06:53:32.142Z,301
2018-08-13T06:54:32.064Z,323
2018-08-13T06:55:32.136Z,322
2018-08-13T06:56:32.067Z,318
2018-08-13T06:57:32.143Z,415
2018-08-13T06:58:32.066Z,306
2018-08-13T06:59:32.142Z,247
2018-08-13T07:00:32.072Z,283
2018-08-13T07:01:32.072Z,254
2018-08-13T07:02:32.143Z,276
2018-08-13T07:03:32.069Z,258
2018-08-13T07:04:32.145Z,252
2018-08-13T07:05:32.147Z,274
2018-08-13T07:06:32.072Z,278
2018-08-13T07:07:32.079Z,282
2018-08-13T07:08:32.149Z,277
2018-08-13T07:09:32.173Z,216
2018-08-13T07:10:32.074Z,201
2018-08-13T07:11:32.077Z,215
2018-08-13T07:12:32.030Z,213
2018-08-13T07:13:32.079Z,203
2018-08-13T07:14:32.173Z,189
2018-08-13T07:15:32.076Z,176
2018-08-13T07:16:32.153Z,164
2018-08-13T07:17:32.102Z,169
2018-08-13T07:18:32.153Z,185
2018-08-13T07:19:32.122Z,202
2018-08-13T07:20:32.156Z,227
2018-08-13T07:21:32.084Z,252
2018-08-13T07:22:32.174Z,273
2018-08-13T07:23:32.156Z,283
2018-08-13T07:24:32.083Z,264
2018-08-13T07:25:32.084Z,224
2018-08-13T07:26:32.161Z,187
2018-08-13T07:27:32.083Z,162
2018-08-13T07:28:32.091Z,148
2018-08-13T07:29:32.164Z,146
2018-08-13T07:30:32.184Z,141
2018-08-13T07:31:32.103Z,138
2018-08-13T07:32:32.164Z,138
2018-08-13T07:33:32.127Z,141
2018-08-13T07:34:32.173Z,149
2018-08-13T07:35:32.095Z,162
2018-08-13T07:36:32.146Z,172
2018-08-13T07:37:32.093Z,171
2018-08-13T07:38:32.172Z,164
2018-08-13T07:39:32.194Z,153
2018-08-13T07:40:32.170Z,143
2018-08-13T07:41:32.114Z,137
2018-08-13T07:42:32.182Z,135
2018-08-13T07:43:32.196Z,134
2018-08-13T07:44:32.174Z,128
2018-08-13T07:45:32.116Z,110
2018-08-13T07:46:32.172Z,102
2018-08-13T07:47:32.148Z,85
2018-08-13T07:48:32.108Z,79
2018-08-13T07:49:32.202Z,72
2018-08-13T07:50:32.110Z,64
2018-08-13T07:51:32.184Z,60
2018-08-13T07:52:32.106Z,57
2018-08-13T07:53:32.178Z,58
2018-08-13T07:54:32.133Z,59
2018-08-13T07:55:32.109Z,59
2018-08-13T07:56:32.183Z,62
2018-08-13T07:57:32.114Z,64
2018-08-13T07:58:32.185Z,70
2018-08-13T07:59:32.121Z,76
2018-08-13T08:00:32.184Z,86
2018-08-13T08:01:32.116Z,97
2018-08-13T08:02:32.187Z,112
2018-08-13T08:03:32.151Z,132
2018-08-13T08:04:32.187Z,150
2018-08-13T08:05:32.113Z,177
2018-08-13T08:06:32.189Z,205
2018-08-13T08:07:32.113Z,229
2018-08-13T08:08:32.188Z,247
2018-08-13T08:09:32.120Z,257
2018-08-13T08:10:32.116Z,264
2018-08-13T08:11:32.192Z,266
2018-08-13T08:12:32.192Z,258
2018-08-13T08:13:32.119Z,245
2018-08-13T08:14:32.247Z,229
2018-08-13T08:15:32.121Z,210
2018-08-13T08:16:32.196Z,194
2018-08-13T08:17:32.195Z,180
2018-08-13T08:18:32.127Z,170
2018-08-13T08:19:32.197Z,157
2018-08-13T08:20:32.123Z,146
2018-08-13T08:21:32.197Z,136
2018-08-13T08:22:32.128Z,128
2018-08-13T08:23:32.199Z,122
2018-08-13T08:24:32.127Z,117
2018-08-13T08:25:32.133Z,112
2018-08-13T08:26:32.208Z,115
2018-08-13T08:27:32.199Z,106
2018-08-13T08:28:32.202Z,107
2018-08-13T08:29:32.193Z,105
2018-08-13T08:30:32.144Z,118
2018-08-13T08:31:32.127Z,118
2018-08-13T08:32:32.082Z,122
2018-08-13T08:33:32.151Z,132
2018-08-13T08:34:32.108Z,135
2018-08-13T08:35:32.208Z,140
2018-08-13T08:36:32.104Z,145
2018-08-13T08:37:32.198Z,152
2018-08-13T08:38:32.104Z,160
2018-08-13T08:39:32.044Z,168
2018-08-13T08:40:32.173Z,177
2018-08-13T08:41:32.164Z,185
2018-08-13T08:42:32.061Z,192
2018-08-13T08:43:32.154Z,196
2018-08-13T08:44:32.098Z,194
2018-08-13T08:45:32.106Z,188
2018-08-13T08:46:32.160Z,178
2018-08-13T08:47:32.067Z,166
2018-08-13T08:48:32.152Z,153
2018-08-13T08:49:32.147Z,141
2018-08-13T08:50:32.220Z,132
2018-08-13T08:51:32.218Z,124
2018-08-13T08:52:32.155Z,109
2018-08-13T08:53:32.453Z,103
2018-08-13T08:54:32.147Z,106
2018-08-13T08:55:32.223Z,100
2018-08-13T08:56:32.143Z,94
2018-08-13T08:57:32.151Z,91
2018-08-13T08:58:32.224Z,90
2018-08-13T08:59:32.150Z,88
2018-08-13T09:00:32.279Z,87
2018-08-13T09:01:32.228Z,87
2018-08-13T09:02:32.153Z,88
2018-08-13T09:03:32.156Z,91
2018-08-13T09:04:32.232Z,94
2018-08-13T09:05:32.162Z,92
2018-08-13T09:06:32.263Z,99
2018-08-13T09:07:32.231Z,103
2018-08-13T09:08:32.161Z,102
2018-08-13T09:09:32.100Z,106
2018-08-13T09:10:32.122Z,107
2018-08-13T09:11:32.193Z,105
2018-08-13T09:12:32.170Z,106
2018-08-13T09:13:32.104Z,109
2018-08-13T09:14:32.195Z,110
2018-08-13T09:15:32.128Z,110
2018-08-13T09:16:32.143Z,111
2018-08-13T09:17:32.188Z,113
2018-08-13T09:18:32.105Z,116
2018-08-13T09:19:32.243Z,116
2018-08-13T09:20:32.102Z,119
2018-08-13T09:21:32.210Z,116
2018-08-13T09:22:32.225Z,119
2018-08-13T09:23:32.187Z,114
2018-08-13T09:24:32.393Z,133
2018-08-13T09:25:32.246Z,139
2018-08-13T09:26:32.190Z,143
2018-08-13T09:27:32.192Z,146
2018-08-13T09:28:32.174Z,149
2018-08-13T09:29:32.245Z,150
2018-08-13T09:30:32.173Z,152
2018-08-13T09:31:32.329Z,155
2018-08-13T09:32:32.250Z,158
2018-08-13T09:33:32.176Z,161
2018-08-13T09:34:32.248Z,165
2018-08-13T09:35:32.202Z,167
2018-08-13T09:36:32.288Z,171
2018-08-13T09:37:32.177Z,176
2018-08-13T09:38:32.253Z,179
2018-08-13T09:39:32.182Z,181
2018-08-13T09:40:32.112Z,185
2018-08-13T09:41:32.194Z,189
2018-08-13T09:42:32.228Z,194
2018-08-13T09:43:32.143Z,201
2018-08-13T09:44:32.123Z,209
2018-08-13T09:45:32.158Z,219
2018-08-13T09:46:32.157Z,229
2018-08-13T09:47:32.202Z,240
2018-08-13T09:48:32.216Z,250
2018-08-13T09:49:32.244Z,262
2018-08-13T09:50:32.186Z,277
2018-08-13T09:51:32.191Z,295
2018-08-13T09:52:32.261Z,314
2018-08-13T09:53:32.195Z,331
2018-08-13T09:54:32.272Z,345
2018-08-13T09:55:32.189Z,354
2018-08-13T09:56:32.262Z,359
2018-08-13T09:57:32.192Z,362
2018-08-13T09:58:32.263Z,360
2018-08-13T09:59:32.202Z,347
2018-08-13T10:00:32.195Z,330
2018-08-13T10:01:32.271Z,316
2018-08-13T10:02:32.245Z,307
2018-08-13T10:03:32.270Z,302
2018-08-13T10:04:32.277Z,299
2018-08-13T10:05:32.196Z,296
2018-08-13T10:06:32.271Z,289
2018-08-13T10:07:32.202Z,283
2018-08-13T10:08:32.273Z,274
2018-08-13T10:09:32.197Z,268
2018-08-13T10:10:32.298Z,264
2018-08-13T10:11:32.233Z,265
2018-08-13T10:12:32.130Z,268
2018-08-13T10:13:32.234Z,274
2018-08-13T10:14:32.142Z,285
2018-08-13T10:15:32.164Z,292
2018-08-13T10:16:32.235Z,299
2018-08-13T10:17:32.229Z,305
2018-08-13T10:18:32.134Z,312
2018-08-13T10:19:32.217Z,319
2018-08-13T10:20:32.282Z,325
2018-08-13T10:21:32.279Z,330
2018-08-13T10:22:32.196Z,333
2018-08-13T10:23:32.212Z,337
2018-08-13T10:24:32.285Z,343
2018-08-13T10:25:32.209Z,353
2018-08-13T10:26:32.281Z,365
2018-08-13T10:27:32.208Z,380
2018-08-13T10:28:32.212Z,399
2018-08-13T10:29:32.289Z,420
2018-08-13T10:30:32.175Z,435
2018-08-13T10:31:32.262Z,436
2018-08-13T10:32:32.190Z,419
2018-08-13T10:33:32.155Z,383
2018-08-13T10:34:32.147Z,343
2018-08-13T10:35:32.177Z,310
2018-08-13T10:36:32.134Z,285
2018-08-13T10:37:32.320Z,278
2018-08-13T10:38:32.198Z,277
2018-08-13T10:39:32.234Z,281
2018-08-13T10:40:32.258Z,288
2018-08-13T10:41:32.231Z,295
2018-08-13T10:42:32.290Z,299
2018-08-13T10:43:32.313Z,304
2018-08-13T10:44:32.256Z,308
2018-08-13T10:45:32.211Z,313
2018-08-13T10:46:32.212Z,315
2018-08-13T10:47:32.282Z,311
2018-08-13T10:48:32.237Z,301
2018-08-13T10:49:32.260Z,293
2018-08-13T10:50:32.302Z,283
2018-08-13T10:51:32.234Z,274
2018-08-13T10:52:32.306Z,262
2018-08-13T10:53:32.231Z,248
2018-08-13T10:54:32.313Z,236
2018-08-13T10:55:32.301Z,225
2018-08-13T10:56:32.234Z,217
2018-08-13T10:57:32.309Z,208
2018-08-13T10:58:32.232Z,198
2018-08-13T10:59:32.312Z,188
2018-08-13T11:00:32.234Z,180
2018-08-13T11:01:32.309Z,170
2018-08-13T11:02:32.234Z,163
2018-08-13T11:03:32.312Z,157
2018-08-13T11:04:32.236Z,153
2018-08-13T11:05:32.227Z,148
2018-08-13T11:06:32.240Z,144
2018-08-13T11:07:32.332Z,142
2018-08-13T11:08:32.317Z,139
2018-08-13T11:09:32.316Z,138
2018-08-13T11:10:32.245Z,137
2018-08-13T11:11:32.295Z,138
2018-08-13T11:12:32.248Z,138
2018-08-13T11:13:32.303Z,139
2018-08-13T11:14:32.277Z,144
2018-08-13T11:15:32.262Z,147
2018-08-13T11:16:32.306Z,151
2018-08-13T11:17:32.266Z,153
2018-08-13T11:18:32.276Z,159
2018-08-13T11:19:32.279Z,161
2018-08-13T11:20:32.320Z,162
2018-08-13T11:21:32.265Z,161
2018-08-13T11:22:32.325Z,159
2018-08-13T11:23:32.329Z,155
2018-08-13T11:24:32.250Z,156
2018-08-13T11:25:32.254Z,156
2018-08-13T11:26:32.327Z,160
2018-08-13T11:27:32.259Z,161
2018-08-13T11:28:32.351Z,166
2018-08-13T11:29:32.255Z,171
2018-08-13T11:30:32.329Z,178
2018-08-13T11:31:32.259Z,185
2018-08-13T11:32:32.347Z,193
2018-08-13T11:33:32.262Z,201
2018-08-13T11:34:32.302Z,212
2018-08-13T11:35:32.332Z,223
2018-08-13T11:36:32.262Z,232
2018-08-13T11:37:32.333Z,247
2018-08-13T11:38:32.264Z,267
2018-08-13T11:39:32.340Z,291
2018-08-13T11:40:32.348Z,312
2018-08-13T11:41:32.280Z,330
2018-08-13T11:42:32.367Z,346
2018-08-13T11:43:32.227Z,357
2018-08-13T11:44:32.176Z,374
2018-08-13T11:45:32.268Z,398
2018-08-13T11:46:32.238Z,422
2018-08-13T11:47:32.300Z,458
2018-08-13T11:48:32.245Z,470
2018-08-13T11:49:32.214Z,593
2018-08-13T11:50:32.236Z,521
2018-08-13T11:51:32.289Z,637
2018-08-13T11:52:32.248Z,546
2018-08-13T11:53:32.290Z,553
2018-08-13T11:54:32.238Z,593
2018-08-13T11:55:32.235Z,656
2018-08-13T11:56:32.391Z,684
2018-08-13T11:57:32.182Z,682
2018-08-13T11:58:32.197Z,680
2018-08-13T11:59:32.233Z,698
2018-08-13T12:00:32.278Z,600
2018-08-13T12:01:32.275Z,545
2018-08-13T12:02:32.353Z,529
2018-08-13T12:03:32.277Z,497
2018-08-13T12:04:32.282Z,453
2018-08-13T12:05:32.350Z,444
2018-08-13T12:06:32.286Z,490
2018-08-13T12:07:32.360Z,592
2018-08-13T12:08:32.333Z,579
2018-08-13T12:09:32.361Z,501
2018-08-13T12:10:32.287Z,489
2018-08-13T12:11:32.364Z,472
2018-08-13T12:12:32.364Z,457
2018-08-13T12:13:32.287Z,454
2018-08-13T12:14:32.362Z,471
2018-08-13T12:15:32.517Z,491
2018-08-13T12:16:32.364Z,480
2018-08-13T12:17:32.288Z,475
2018-08-13T12:18:32.290Z,458
2018-08-13T12:19:32.338Z,434
2018-08-13T12:20:32.306Z,418
2018-08-13T12:21:32.334Z,406
2018-08-13T12:22:32.317Z,401
2018-08-13T12:23:32.309Z,409
2018-08-13T12:24:32.356Z,422
2018-08-13T12:25:32.367Z,427
2018-08-13T12:26:32.473Z,419
2018-08-13T12:27:32.299Z,396
2018-08-13T12:28:32.360Z,366
2018-08-13T12:29:32.357Z,345
2018-08-13T12:30:32.347Z,327
2018-08-13T12:31:32.303Z,310
2018-08-13T12:34:32.302Z,309
2018-08-13T12:35:32.333Z,319
2018-08-13T12:36:32.216Z,329
2018-08-13T12:37:32.341Z,370
2018-08-13T12:38:32.303Z,429
2018-08-13T12:39:32.316Z,402
2018-08-13T12:40:32.311Z,399
2018-08-13T12:41:32.336Z,389
2018-08-13T12:42:32.335Z,375
2018-08-13T12:43:32.236Z,343
2018-08-13T12:44:32.364Z,310
2018-08-13T12:45:32.324Z,275
2018-08-13T12:46:32.275Z,250
2018-08-13T12:47:32.250Z,235
2018-08-13T12:48:32.292Z,221
2018-08-13T12:49:32.341Z,210
2018-08-13T12:50:32.346Z,197
2018-08-13T12:51:32.319Z,194
2018-08-13T12:52:32.352Z,195
2018-08-13T12:53:32.270Z,193
2018-08-13T12:54:32.294Z,190
2018-08-13T12:55:32.375Z,187
2018-08-13T12:56:32.361Z,205
2018-08-13T12:57:32.351Z,208
2018-08-13T12:58:32.355Z,208
2018-08-13T12:59:32.289Z,187
2018-08-13T13:00:32.355Z,167
2018-08-13T13:01:32.361Z,146
2018-08-13T13:02:32.354Z,143
2018-08-13T13:03:32.317Z,170
2018-08-13T13:04:32.356Z,243
2018-08-13T13:05:32.275Z,344
2018-08-13T13:06:32.367Z,465
2018-08-13T13:07:32.343Z,518
2018-08-13T13:08:32.305Z,526
2018-08-13T13:09:32.385Z,496
2018-08-13T13:10:32.605Z,491
2018-08-13T13:11:32.402Z,465
2018-08-13T13:12:32.400Z,951
2018-08-13T13:13:32.325Z,459
2018-08-13T13:14:32.339Z,428
2018-08-13T13:15:32.404Z,437
2018-08-13T13:16:32.337Z,444
2018-08-13T13:17:32.333Z,451
2018-08-13T13:18:32.416Z,443
2018-08-13T13:19:32.331Z,410
2018-08-13T13:20:32.504Z,336
2018-08-13T13:21:32.331Z,262
2018-08-13T13:22:32.406Z,207
2018-08-13T13:23:32.344Z,169
2018-08-13T13:24:32.407Z,169
2018-08-13T13:25:32.339Z,184
2018-08-13T13:26:32.410Z,180
2018-08-13T13:27:32.413Z,156
2018-08-13T13:28:32.336Z,135
2018-08-13T13:29:32.339Z,108
2018-08-13T13:30:32.281Z,93
2018-08-13T13:31:32.298Z,66
2018-08-13T13:32:32.252Z,54
2018-08-13T13:33:32.383Z,46
2018-08-13T13:34:32.432Z,50
2018-08-13T13:35:32.369Z,50
2018-08-13T13:36:32.380Z,44
2018-08-13T13:37:32.398Z,44
2018-08-13T13:38:32.379Z,48
2018-08-13T13:39:32.286Z,50
2018-08-13T13:40:32.519Z,56
2018-08-13T13:41:32.332Z,60
2018-08-13T13:42:32.369Z,61
2018-08-13T13:43:32.425Z,66
2018-08-13T13:44:32.352Z,73
2018-08-13T13:45:32.426Z,76
2018-08-13T13:46:32.358Z,84
2018-08-13T13:47:32.427Z,111
2018-08-13T13:48:32.352Z,114
2018-08-13T13:49:32.430Z,101
2018-08-13T13:50:32.356Z,89
2018-08-13T13:51:32.479Z,81
2018-08-13T13:52:32.352Z,67
2018-08-13T13:53:32.429Z,59
2018-08-13T13:54:32.356Z,69
2018-08-13T13:55:32.434Z,66
2018-08-13T13:56:32.355Z,62
2018-08-13T13:57:32.359Z,66
2018-08-13T13:58:32.441Z,64
2018-08-13T13:59:32.360Z,63
2018-08-13T14:00:32.435Z,62
2018-08-13T14:01:32.434Z,72
2018-08-13T14:02:32.438Z,98
2018-08-13T14:03:32.361Z,105
2018-08-13T14:04:32.370Z,110
2018-08-13T14:05:32.437Z,110
2018-08-13T14:06:32.369Z,144
2018-08-13T14:07:32.363Z,173
2018-08-13T14:08:32.369Z,186
2018-08-13T14:09:32.368Z,152
2018-08-13T14:11:32.413Z,129
2018-08-13T14:12:32.343Z,166
2018-08-13T14:13:32.409Z,183
2018-08-13T14:14:32.348Z,185